Time;durP1;ratioP1;P1;durP2;ratioP2;P2;SDS_P1;SDS_P2;PMS_P1;PMS_P2;Temp;Humidity;BMP_temperature;BMP_pressure;BME280_temperature;BME280_humidity;BME280_pressure;Samples;Min_cycle;Max_cycle;Signal;HPM_P1;HPM_P2
2021/01/15 00:01:17;;;;;;;;;;;3.10;92.30;;;;;;4963417;28;83251;-49
2021/01/15 00:03:43;;;;;;;;;;;3.10;92.30;;;;;;4961785;28;82151;-51
2021/01/15 00:06:08;;;;;;;;;;;3.10;92.30;;;;;;4961232;28;82544;-49
2021/01/15 00:08:38;;;;;;;;;;;3.10;92.30;;;;;;4961815;28;82965;-50
2021/01/15 00:11:14;;;;;;;;;;;3.10;92.30;;;;;;4966966;28;82104;-50
2021/01/15 00:13:39;;;;;;;;;;;3.10;92.30;;;;;;4963101;28;82310;-48
2021/01/15 00:16:05;;;;;;;;;;;3.00;92.30;;;;;;4964355;28;81433;-49
2021/01/15 00:18:30;;;;;;;;;;;3.00;92.30;;;;;;4963019;28;82159;-49
2021/01/15 00:20:56;;;;;;;;;;;3.00;92.30;;;;;;4962509;28;83558;-49
2021/01/15 00:23:21;;;;;;;;;;;3.00;92.30;;;;;;4961229;28;83077;-49
2021/01/15 00:25:47;;;;;;;;;;;3.00;92.40;;;;;;4961303;28;84084;-50
2021/01/15 00:28:12;;;;;;;;;;;3.00;92.30;;;;;;4961368;28;84063;-50
2021/01/15 00:30:38;;;;;;;;;;;3.00;92.30;;;;;;4962001;28;82198;-52
2021/01/15 00:33:04;;;;;;;;;;;3.00;92.30;;;;;;4947768;28;83745;-51
2021/01/15 00:35:29;;;;;;;;;;;2.90;92.30;;;;;;4961995;28;82103;-49
2021/01/15 00:37:55;;;;;;;;;;;2.90;92.30;;;;;;4954521;28;82246;-50
2021/01/15 00:40:20;;;;;;;;;;;2.90;92.30;;;;;;4943570;28;81376;-49
2021/01/15 00:42:46;;;;;;;;;;;2.90;92.40;;;;;;4944458;28;82070;-50
2021/01/15 00:45:16;;;;;;;;;;;2.90;92.40;;;;;;4945075;28;82089;-51
2021/01/15 00:47:43;;;;;;;;;;;2.90;92.40;;;;;;4949093;28;84133;-49
2021/01/15 00:50:09;;;;;;;;;;;2.90;92.40;;;;;;4961745;28;82077;-51
2021/01/15 00:52:34;;;;;;;;;;;2.80;92.40;;;;;;4946542;28;83496;-50
2021/01/15 00:55:00;;;;;;;;;;;2.80;92.40;;;;;;4962399;28;82063;-50
2021/01/15 00:57:25;;;;;;;;;;;2.80;92.40;;;;;;4958548;28;82319;-51
2021/01/15 00:59:51;;;;;;;;;;;2.80;92.40;;;;;;4941493;28;83697;-49
2021/01/15 01:02:16;;;;;;;;;;;2.80;92.40;;;;;;4941142;28;82172;-50
2021/01/15 01:04:42;;;;;;;;;;;2.80;92.30;;;;;;4942194;28;82738;-51
2021/01/15 01:07:07;;;;;;;;;;;2.80;92.40;;;;;;4943170;28;82240;-52
2021/01/15 01:09:33;;;;;;;;;;;2.80;92.40;;;;;;4963663;28;82123;-48
2021/01/15 01:11:58;;;;;;;;;;;2.80;92.40;;;;;;4963803;28;83093;-50
2021/01/15 01:14:24;;;;;;;;;;;2.80;92.50;;;;;;4966173;28;83651;-48
2021/01/15 01:16:49;;;;;;;;;;;2.70;92.40;;;;;;4962773;28;82524;-48
2021/01/15 01:19:15;;;;;;;;;;;2.70;92.40;;;;;;4944510;28;82612;-49
2021/01/15 01:21:40;;;;;;;;;;;2.70;92.50;;;;;;4943536;28;82090;-50
2021/01/15 01:24:06;;;;;;;;;;;2.70;92.50;;;;;;4942066;28;83172;-49
2021/01/15 01:26:31;;;;;;;;;;;2.70;92.40;;;;;;4942738;28;83293;-48
2021/01/15 01:28:57;;;;;;;;;;;2.70;92.50;;;;;;4939769;28;81409;-52
2021/01/15 01:31:22;;;;;;;;;;;2.70;92.50;;;;;;4962673;28;82184;-50
2021/01/15 01:33:48;;;;;;;;;;;2.70;92.50;;;;;;4945028;28;83546;-50
2021/01/15 01:36:13;;;;;;;;;;;2.60;92.50;;;;;;4964489;28;83085;-49
2021/01/15 01:38:41;;;;;;;;;;;2.60;92.50;;;;;;4961095;28;82220;-50
2021/01/15 01:41:07;;;;;;;;;;;2.60;92.40;;;;;;4961813;28;83541;-51
2021/01/15 01:43:32;;;;;;;;;;;2.60;92.30;;;;;;4959999;28;82137;-49
2021/01/15 01:46:00;;;;;;;;;;;2.60;92.30;;;;;;4960158;28;82813;-49
2021/01/15 01:48:26;;;;;;;;;;;2.60;92.40;;;;;;4962768;28;83358;-50
2021/01/15 01:50:52;;;;;;;;;;;2.60;92.40;;;;;;4962369;28;82724;-49
2021/01/15 01:53:20;;;;;;;;;;;2.60;92.50;;;;;;4961015;28;82580;-49
2021/01/15 01:55:47;;;;;;;;;;;2.60;92.50;;;;;;4961017;28;82137;-48
2021/01/15 01:58:13;;;;;;;;;;;2.50;92.40;;;;;;4966219;28;82441;-52
2021/01/15 02:00:40;;;;;;;;;;;2.60;92.60;;;;;;4962340;28;83044;-52
2021/01/15 02:03:06;;;;;;;;;;;2.60;92.50;;;;;;4962009;28;83609;-51
2021/01/15 02:05:32;;;;;;;;;;;2.60;92.50;;;;;;4962063;28;82378;-49
2021/01/15 02:07:57;;;;;;;;;;;2.50;92.60;;;;;;4963186;28;82176;-50
2021/01/15 02:10:28;;;;;;;;;;;2.50;92.50;;;;;;4963131;28;82515;-51
2021/01/15 02:12:57;;;;;;;;;;;2.50;92.40;;;;;;4963066;28;82617;-50
2021/01/15 02:15:27;;;;;;;;;;;2.50;92.60;;;;;;4962058;28;83593;-51
2021/01/15 02:18:06;;;;;;;;;;;2.50;92.50;;;;;;4959996;28;83006;-51
2021/01/15 02:20:57;;;;;;;;;;;2.50;92.60;;;;;;4942117;28;83681;-51
2021/01/15 02:23:32;;;;;;;;;;;2.40;92.50;;;;;;4943019;28;83123;-52
2021/01/15 02:26:09;;;;;;;;;;;2.50;92.60;;;;;;4940125;28;84118;-53
2021/01/15 02:28:35;;;;;;;;;;;2.40;92.60;;;;;;4933193;28;83605;-49
2021/01/15 02:31:03;;;;;;;;;;;2.50;92.50;;;;;;4959219;28;82628;-48
2021/01/15 02:33:35;;;;;;;;;;;2.50;92.60;;;;;;4961153;28;82735;-51
2021/01/15 02:36:00;;;;;;;;;;;2.40;92.50;;;;;;4961479;28;82065;-51
2021/01/15 02:38:32;;;;;;;;;;;2.40;92.50;;;;;;4963858;28;82837;-49
2021/01/15 02:41:00;;;;;;;;;;;2.40;92.50;;;;;;4966861;28;83334;-51
2021/01/15 02:43:26;;;;;;;;;;;2.40;92.50;;;;;;4966469;28;81401;-52
2021/01/15 02:45:54;;;;;;;;;;;2.40;92.70;;;;;;4962309;28;82678;-50
2021/01/15 02:48:22;;;;;;;;;;;2.40;92.50;;;;;;4958524;28;83204;-51
2021/01/15 02:50:48;;;;;;;;;;;2.40;92.50;;;;;;4943280;28;83151;-52
2021/01/15 02:53:16;;;;;;;;;;;2.30;92.50;;;;;;4943011;28;83507;-49
2021/01/15 02:55:41;;;;;;;;;;;2.30;92.50;;;;;;4945848;28;82100;-53
2021/01/15 02:58:07;;;;;;;;;;;2.30;92.50;;;;;;4952109;28;82123;-50
2021/01/15 03:00:32;;;;;;;;;;;2.30;92.50;;;;;;4965811;28;82869;-51
2021/01/15 03:03:06;;;;;;;;;;;2.30;92.60;;;;;;4969000;28;82023;-51
2021/01/15 03:05:33;;;;;;;;;;;2.30;92.60;;;;;;4963815;28;83233;-52
2021/01/15 03:08:03;;;;;;;;;;;2.30;92.60;;;;;;4958586;28;81374;-49
2021/01/15 03:10:29;;;;;;;;;;;2.30;92.60;;;;;;4942283;28;83003;-52
2021/01/15 03:12:56;;;;;;;;;;;2.30;92.60;;;;;;4942529;28;83868;-48
2021/01/15 03:15:22;;;;;;;;;;;2.30;92.60;;;;;;4941831;28;83096;-50
2021/01/15 03:17:49;;;;;;;;;;;2.30;92.60;;;;;;4948431;28;83797;-53
2021/01/15 03:20:15;;;;;;;;;;;2.30;92.60;;;;;;4965325;28;82768;-50
2021/01/15 03:22:44;;;;;;;;;;;2.30;92.60;;;;;;4965498;28;82163;-51
2021/01/15 03:25:10;;;;;;;;;;;2.20;92.60;;;;;;4969188;28;82861;-50
2021/01/15 03:27:48;;;;;;;;;;;2.20;92.60;;;;;;4966029;28;82105;-52
2021/01/15 03:30:15;;;;;;;;;;;2.20;92.50;;;;;;4946286;28;82928;-49
2021/01/15 03:32:41;;;;;;;;;;;2.20;92.60;;;;;;4963379;28;82941;-50
2021/01/15 03:35:07;;;;;;;;;;;2.20;92.70;;;;;;4963446;28;82085;-53
2021/01/15 03:37:34;;;;;;;;;;;2.20;92.60;;;;;;4962515;28;82997;-49
2021/01/15 03:40:00;;;;;;;;;;;2.20;92.60;;;;;;4942562;28;84735;-50
2021/01/15 03:42:25;;;;;;;;;;;2.20;92.60;;;;;;4942457;28;82041;-49
2021/01/15 03:44:51;;;;;;;;;;;2.20;92.80;;;;;;4942272;28;83743;-49
2021/01/15 03:47:16;;;;;;;;;;;2.20;92.60;;;;;;4947382;28;82222;-51
2021/01/15 03:49:42;;;;;;;;;;;2.10;92.50;;;;;;4961635;28;82174;-50
2021/01/15 03:52:10;;;;;;;;;;;2.10;92.60;;;;;;4963895;28;83214;-50
2021/01/15 03:54:36;;;;;;;;;;;2.10;92.60;;;;;;4964256;28;83512;-48
2021/01/15 03:57:02;;;;;;;;;;;2.10;92.70;;;;;;4965472;28;84147;-50
2021/01/15 03:59:27;;;;;;;;;;;2.10;92.60;;;;;;4950911;28;83404;-51
2021/01/15 04:01:53;;;;;;;;;;;2.10;92.60;;;;;;4946024;28;82290;-49
2021/01/15 04:04:18;;;;;;;;;;;2.10;92.60;;;;;;4945548;28;83972;-49
2021/01/15 04:06:44;;;;;;;;;;;2.00;92.60;;;;;;4945903;28;83283;-49
2021/01/15 04:09:09;;;;;;;;;;;2.10;92.70;;;;;;4958050;28;83024;-51
2021/01/15 04:11:34;;;;;;;;;;;2.10;92.60;;;;;;4965301;28;83552;-51
2021/01/15 04:14:00;;;;;;;;;;;2.10;92.70;;;;;;4965383;28;82173;-50
2021/01/15 04:16:25;;;;;;;;;;;2.10;92.70;;;;;;4964865;28;82650;-49
2021/01/15 04:18:51;;;;;;;;;;;2.10;92.60;;;;;;4963730;28;82177;-49
2021/01/15 04:21:17;;;;;;;;;;;2.00;92.60;;;;;;4965155;28;81444;-48
2021/01/15 04:23:44;;;;;;;;;;;2.00;92.60;;;;;;4965049;28;82163;-50
2021/01/15 04:26:15;;;;;;;;;;;2.00;92.60;;;;;;4962721;28;83300;-52
2021/01/15 04:28:41;;;;;;;;;;;2.00;92.60;;;;;;4936104;28;83072;-48
2021/01/15 04:31:06;;;;;;;;;;;2.00;92.60;;;;;;4943676;28;83544;-51
2021/01/15 04:33:34;;;;;;;;;;;2.00;92.60;;;;;;4941218;28;83253;-50
2021/01/15 04:36:00;;;;;;;;;;;2.00;92.60;;;;;;4943750;28;84185;-49
2021/01/15 04:38:25;;;;;;;;;;;2.00;92.70;;;;;;4947315;28;83203;-52
2021/01/15 04:40:56;;;;;;;;;;;2.00;92.70;;;;;;4961616;28;82183;-50
2021/01/15 04:43:22;;;;;;;;;;;2.00;92.70;;;;;;4961449;28;82091;-48
2021/01/15 04:45:48;;;;;;;;;;;2.00;92.70;;;;;;4961085;28;81644;-51
2021/01/15 04:48:15;;;;;;;;;;;2.00;92.70;;;;;;4962403;28;83626;-50
2021/01/15 04:50:41;;;;;;;;;;;1.90;92.70;;;;;;4946811;28;82941;-51
2021/01/15 04:53:10;;;;;;;;;;;1.90;92.70;;;;;;4942999;28;83032;-48
2021/01/15 04:55:37;;;;;;;;;;;1.90;92.70;;;;;;4942864;28;83629;-49
2021/01/15 04:58:05;;;;;;;;;;;1.90;92.70;;;;;;4944013;28;83487;-48
2021/01/15 05:00:30;;;;;;;;;;;1.90;92.70;;;;;;4961838;28;82069;-51
2021/01/15 05:02:56;;;;;;;;;;;1.90;92.70;;;;;;4962416;28;82370;-53
2021/01/15 05:05:23;;;;;;;;;;;1.90;92.70;;;;;;4961876;28;83722;-52
2021/01/15 05:08:09;;;;;;;;;;;1.90;92.70;;;;;;4964529;28;83693;-53
2021/01/15 05:10:39;;;;;;;;;;;1.90;92.60;;;;;;4963475;28;83017;-49
2021/01/15 05:13:06;;;;;;;;;;;1.90;92.70;;;;;;4956237;28;83492;-51
2021/01/15 05:15:31;;;;;;;;;;;1.90;92.70;;;;;;4961678;28;82918;-51
2021/01/15 05:17:58;;;;;;;;;;;1.90;92.70;;;;;;4960055;28;83369;-49
2021/01/15 05:20:26;;;;;;;;;;;1.90;92.70;;;;;;4960128;28;82141;-48
2021/01/15 05:22:52;;;;;;;;;;;1.80;92.70;;;;;;4960152;28;82697;-51
2021/01/15 05:25:17;;;;;;;;;;;1.90;92.70;;;;;;4943259;28;82111;-50
2021/01/15 05:27:43;;;;;;;;;;;1.90;92.70;;;;;;4943870;28;82148;-49
2021/01/15 05:30:11;;;;;;;;;;;1.80;92.70;;;;;;4942525;28;84292;-51
2021/01/15 05:32:37;;;;;;;;;;;1.80;92.70;;;;;;4941681;28;82727;-49
2021/01/15 05:35:03;;;;;;;;;;;1.80;92.70;;;;;;4963493;28;81444;-48
2021/01/15 05:37:29;;;;;;;;;;;1.80;92.70;;;;;;4960368;28;83725;-51
2021/01/15 05:39:54;;;;;;;;;;;1.80;92.70;;;;;;4960697;28;82115;-50
2021/01/15 05:42:20;;;;;;;;;;;1.80;92.70;;;;;;4960068;28;83047;-48
2021/01/15 05:44:45;;;;;;;;;;;1.80;92.70;;;;;;4941486;28;83397;-51
2021/01/15 05:47:11;;;;;;;;;;;1.80;92.70;;;;;;4940337;28;83689;-48
2021/01/15 05:49:36;;;;;;;;;;;1.80;92.70;;;;;;4939976;28;83032;-49
2021/01/15 05:52:06;;;;;;;;;;;1.80;92.80;;;;;;4940218;28;82108;-51
2021/01/15 05:54:32;;;;;;;;;;;1.80;92.70;;;;;;4958051;28;82167;-49
2021/01/15 05:56:59;;;;;;;;;;;1.80;92.70;;;;;;4965270;28;82832;-49
2021/01/15 05:59:25;;;;;;;;;;;1.80;92.70;;;;;;4962622;28;81416;-50
2021/01/15 06:01:55;;;;;;;;;;;1.70;92.70;;;;;;4962529;28;82107;-50
2021/01/15 06:04:35;;;;;;;;;;;1.70;92.70;;;;;;4949646;28;85189;-53
2021/01/15 06:07:21;;;;;;;;;;;1.70;92.70;;;;;;4944253;28;83048;-52
2021/01/15 06:09:47;;;;;;;;;;;1.70;92.70;;;;;;4943948;28;83015;-51
2021/01/15 06:12:17;;;;;;;;;;;1.70;92.80;;;;;;4947307;28;83168;-53
2021/01/15 06:14:58;;;;;;;;;;;1.70;92.70;;;;;;4946273;28;83597;-50
2021/01/15 06:17:27;;;;;;;;;;;1.70;92.70;;;;;;4943206;28;84266;-49
2021/01/15 06:19:58;;;;;;;;;;;1.70;92.80;;;;;;4948234;28;83560;-50
2021/01/15 06:22:32;;;;;;;;;;;1.70;92.80;;;;;;4944077;28;84155;-47
2021/01/15 06:25:03;;;;;;;;;;;1.70;92.80;;;;;;4965440;28;83601;-51
2021/01/15 06:27:33;;;;;;;;;;;1.70;92.70;;;;;;4964858;28;82081;-49
2021/01/15 06:30:01;;;;;;;;;;;1.70;92.70;;;;;;4967265;28;82433;-49
2021/01/15 06:32:27;;;;;;;;;;;1.70;92.70;;;;;;4962994;28;84025;-49
2021/01/15 06:34:54;;;;;;;;;;;1.70;92.80;;;;;;4945814;28;82221;-49
2021/01/15 06:37:20;;;;;;;;;;;1.70;92.80;;;;;;4943322;28;83357;-49
2021/01/15 06:40:05;;;;;;;;;;;1.70;92.80;;;;;;4942712;28;82092;-48
2021/01/15 06:42:31;;;;;;;;;;;1.70;92.80;;;;;;4947397;28;82125;-50
2021/01/15 06:44:57;;;;;;;;;;;1.60;92.80;;;;;;4944707;28;82900;-51
2021/01/15 06:47:26;;;;;;;;;;;1.70;92.80;;;;;;4943988;28;82147;-52
2021/01/15 06:49:54;;;;;;;;;;;1.60;92.70;;;;;;4947741;28;82064;-49
2021/01/15 06:52:24;;;;;;;;;;;1.60;92.70;;;;;;4944187;28;83045;-49
2021/01/15 06:54:53;;;;;;;;;;;1.70;92.70;;;;;;4962271;28;82075;-49
2021/01/15 06:57:19;;;;;;;;;;;1.70;92.80;;;;;;4962456;28;84113;-50
2021/01/15 06:59:51;;;;;;;;;;;1.60;92.90;;;;;;4962957;28;83613;-52
2021/01/15 07:02:17;;;;;;;;;;;1.60;92.80;;;;;;4965147;28;82112;-50
2021/01/15 07:04:45;;;;;;;;;;;1.60;92.80;;;;;;4948321;28;82850;-49
2021/01/15 07:07:12;;;;;;;;;;;1.60;92.80;;;;;;4943629;28;82171;-49
2021/01/15 07:09:40;;;;;;;;;;;1.60;92.80;;;;;;4945437;28;82901;-50
2021/01/15 07:12:09;;;;;;;;;;;1.60;92.80;;;;;;4944561;28;83432;-48
2021/01/15 07:14:45;;;;;;;;;;;1.60;92.80;;;;;;4959401;28;81496;-48
2021/01/15 07:17:18;;;;;;;;;;;1.60;92.70;;;;;;4965262;28;82195;-52
2021/01/15 07:19:44;;;;;;;;;;;1.60;92.70;;;;;;4962966;28;83074;-50
2021/01/15 07:22:11;;;;;;;;;;;1.60;92.70;;;;;;4961079;28;83146;-50
2021/01/15 07:24:38;;;;;;;;;;;1.60;92.80;;;;;;4964289;28;83142;-49
2021/01/15 07:27:05;;;;;;;;;;;1.60;92.80;;;;;;4966353;28;82131;-54
2021/01/15 07:29:32;;;;;;;;;;;1.60;92.80;;;;;;4964497;28;82932;-51
2021/01/15 07:32:03;;;;;;;;;;;1.60;92.80;;;;;;4961726;28;83215;-52
2021/01/15 07:34:29;;;;;;;;;;;1.60;92.80;;;;;;4949613;28;82259;-48
2021/01/15 07:36:54;;;;;;;;;;;1.60;92.80;;;;;;4944003;28;83009;-53
2021/01/15 07:39:22;;;;;;;;;;;1.60;92.70;;;;;;4946067;28;83036;-49
2021/01/15 07:41:55;;;;;;;;;;;1.60;92.80;;;;;;4944345;28;82095;-49
2021/01/15 07:44:23;;;;;;;;;;;1.60;92.70;;;;;;4954689;28;83949;-50
2021/01/15 07:46:52;;;;;;;;;;;1.50;92.80;;;;;;4964680;28;83839;-48
2021/01/15 07:49:18;;;;;;;;;;;1.60;92.90;;;;;;4963765;28;83012;-50
2021/01/15 07:52:04;;;;;;;;;;;1.50;92.80;;;;;;4962534;28;83392;-50
2021/01/15 07:55:01;;;;;;;;;;;1.60;92.80;;;;;;4950165;28;82150;-51
2021/01/15 07:57:28;;;;;;;;;;;1.60;92.80;;;;;;4932278;28;82976;-51
2021/01/15 07:59:54;;;;;;;;;;;1.60;92.80;;;;;;4946158;28;83304;-53
2021/01/15 08:02:20;;;;;;;;;;;1.50;92.70;;;;;;4945538;28;82208;-50
2021/01/15 08:04:46;;;;;;;;;;;1.60;92.90;;;;;;4958182;28;82067;-52
2021/01/15 08:07:17;;;;;;;;;;;1.60;92.80;;;;;;4963969;28;83420;-50
2021/01/15 08:09:43;;;;;;;;;;;1.60;92.80;;;;;;4964844;28;82107;-49
2021/01/15 08:12:09;;;;;;;;;;;1.50;92.80;;;;;;4960857;28;84244;-52
2021/01/15 08:14:34;;;;;;;;;;;1.50;92.70;;;;;;4962554;28;82141;-49
2021/01/15 08:17:00;;;;;;;;;;;1.50;92.80;;;;;;4961840;28;82288;-49
2021/01/15 08:19:26;;;;;;;;;;;1.50;92.90;;;;;;4960961;28;83462;-48
2021/01/15 08:21:52;;;;;;;;;;;1.50;92.80;;;;;;4960633;28;83751;-49
2021/01/15 08:24:18;;;;;;;;;;;1.50;92.80;;;;;;4951048;28;85425;-51
2021/01/15 08:26:47;;;;;;;;;;;1.50;92.80;;;;;;4945778;28;83007;-52
2021/01/15 08:29:13;;;;;;;;;;;1.50;92.80;;;;;;4942195;28;81394;-53
2021/01/15 08:31:39;;;;;;;;;;;1.50;92.80;;;;;;4944028;28;82980;-49
2021/01/15 08:34:09;;;;;;;;;;;1.50;92.80;;;;;;4944065;28;83922;-50
2021/01/15 08:36:37;;;;;;;;;;;1.50;92.80;;;;;;4943160;28;83833;-49
2021/01/15 08:39:03;;;;;;;;;;;1.50;92.80;;;;;;4942183;28;83156;-51
2021/01/15 08:41:28;;;;;;;;;;;1.50;92.80;;;;;;4941520;28;82124;-51
2021/01/15 08:43:55;;;;;;;;;;;1.50;92.80;;;;;;4946819;28;82660;-51
2021/01/15 08:46:21;;;;;;;;;;;1.50;92.80;;;;;;4961808;28;83476;-51
2021/01/15 08:48:47;;;;;;;;;;;1.50;92.70;;;;;;4965045;28;82978;-52
2021/01/15 08:51:19;;;;;;;;;;;1.50;92.80;;;;;;4964532;28;82184;-50
2021/01/15 08:54:04;;;;;;;;;;;1.50;92.70;;;;;;4965269;28;83121;-52
2021/01/15 08:56:32;;;;;;;;;;;1.50;92.70;;;;;;4963274;28;82330;-50
2021/01/15 08:58:57;;;;;;;;;;;1.50;92.70;;;;;;4960623;28;83529;-49
2021/01/15 09:01:26;;;;;;;;;;;1.50;92.80;;;;;;4960044;28;83039;-49
2021/01/15 09:03:54;;;;;;;;;;;1.50;92.80;;;;;;4957458;28;83489;-51
2021/01/15 09:06:20;;;;;;;;;;;1.50;92.70;;;;;;4945203;28;83135;-53
2021/01/15 09:08:47;;;;;;;;;;;1.50;92.80;;;;;;4944458;28;82161;-49
2021/01/15 09:11:13;;;;;;;;;;;1.50;92.70;;;;;;4941929;28;82767;-48
2021/01/15 09:13:39;;;;;;;;;;;1.50;92.80;;;;;;4947623;28;83268;-52
2021/01/15 09:16:05;;;;;;;;;;;1.50;92.80;;;;;;4962664;28;82888;-50
2021/01/15 09:18:30;;;;;;;;;;;1.50;92.80;;;;;;4962071;28;81858;-50
2021/01/15 09:20:56;;;;;;;;;;;1.50;92.80;;;;;;4960734;28;82088;-50
2021/01/15 09:23:21;;;;;;;;;;;1.50;92.80;;;;;;4962002;28;82116;-51
2021/01/15 09:25:47;;;;;;;;;;;1.50;92.80;;;;;;4941669;28;84113;-50
2021/01/15 09:28:12;;;;;;;;;;;1.50;92.70;;;;;;4941965;28;82089;-52
2021/01/15 09:30:38;;;;;;;;;;;1.50;92.70;;;;;;4941057;28;82590;-49
2021/01/15 09:33:03;;;;;;;;;;;1.50;92.80;;;;;;4940156;28;82891;-50
2021/01/15 09:35:29;;;;;;;;;;;1.50;92.80;;;;;;4944154;28;83647;-50
2021/01/15 09:37:55;;;;;;;;;;;1.50;92.80;;;;;;4944190;28;83359;-52
2021/01/15 09:40:20;;;;;;;;;;;1.60;92.80;;;;;;4943017;28;83023;-51
2021/01/15 09:42:48;;;;;;;;;;;1.50;92.80;;;;;;4944833;28;83308;-49
2021/01/15 09:45:14;;;;;;;;;;;1.50;92.70;;;;;;4941607;28;83274;-48
2021/01/15 09:47:42;;;;;;;;;;;1.50;92.80;;;;;;4944324;28;82234;-49
2021/01/15 09:50:08;;;;;;;;;;;1.50;92.70;;;;;;4945664;28;84135;-50
2021/01/15 09:52:36;;;;;;;;;;;1.50;92.70;;;;;;4943708;28;86170;-51
2021/01/15 09:55:01;;;;;;;;;;;1.50;92.70;;;;;;4946215;28;82163;-53
2021/01/15 09:57:27;;;;;;;;;;;1.50;92.70;;;;;;4950158;28;82962;-53
2021/01/15 09:59:54;;;;;;;;;;;1.50;92.70;;;;;;4947391;28;82233;-52
2021/01/15 10:02:19;;;;;;;;;;;1.50;92.80;;;;;;4945367;28;82549;-50
2021/01/15 10:04:45;;;;;;;;;;;1.50;92.80;;;;;;4952474;28;87871;-49
2021/01/15 10:07:11;;;;;;;;;;;1.50;92.80;;;;;;4962916;28;86400;-49
2021/01/15 10:09:37;;;;;;;;;;;1.50;92.70;;;;;;4960260;28;87140;-49
2021/01/15 10:12:02;;;;;;;;;;;1.60;92.70;;;;;;4959292;28;88546;-49
2021/01/15 10:14:28;;;;;;;;;;;1.60;92.70;;;;;;4951894;28;88144;-52
2021/01/15 10:16:54;;;;;;;;;;;1.50;92.70;;;;;;4940652;28;87352;-49
2021/01/15 10:19:19;;;;;;;;;;;1.50;92.70;;;;;;4942638;28;88270;-49
2021/01/15 10:21:45;;;;;;;;;;;1.50;92.70;;;;;;4941390;28;87814;-50
2021/01/15 10:24:12;;;;;;;;;;;1.50;92.70;;;;;;4948474;28;88347;-48
2021/01/15 10:26:38;;;;;;;;;;;1.50;92.80;;;;;;4963034;28;87169;-52
2021/01/15 10:29:06;;;;;;;;;;;1.50;92.80;;;;;;4963711;28;87159;-51
2021/01/15 10:31:35;;;;;;;;;;;1.60;92.80;;;;;;4961752;28;87135;-48
2021/01/15 10:34:01;;;;;;;;;;;1.50;92.80;;;;;;4960322;28;87182;-54
2021/01/15 10:36:27;;;;;;;;;;;1.50;92.80;;;;;;4943073;28;87161;-50
2021/01/15 10:38:53;;;;;;;;;;;1.60;92.80;;;;;;4941207;28;88796;-52
2021/01/15 10:41:34;;;;;;;;;;;1.60;92.80;;;;;;4944005;28;87157;-49
2021/01/15 10:44:01;;;;;;;;;;;1.60;92.80;;;;;;4938689;28;87217;-49
2021/01/15 10:46:27;;;;;;;;;;;1.60;92.80;;;;;;4943781;28;87174;-50
2021/01/15 10:48:53;;;;;;;;;;;1.60;92.80;;;;;;4941803;28;87163;-48
2021/01/15 10:51:18;;;;;;;;;;;1.50;92.80;;;;;;4940673;28;88745;-50
2021/01/15 10:53:44;;;;;;;;;;;1.50;92.80;;;;;;4941031;28;87149;-51
2021/01/15 10:56:09;;;;;;;;;;;1.50;92.90;;;;;;4961267;28;87884;-50
2021/01/15 10:58:35;;;;;;;;;;;1.60;92.80;;;;;;4961336;28;88351;-57
2021/01/15 11:01:00;;;;;;;;;;;2.10;92.90;;;;;;4962739;28;87296;-50
2021/01/15 11:03:26;;;;;;;;;;;5.80;81.80;;;;;;4963953;28;88122;-56
2021/01/15 11:05:51;;;;;;;;;;;8.30;70.70;;;;;;4960853;28;87824;-60
2021/01/15 11:08:17;;;;;;;;;;;9.70;64.90;;;;;;4960497;28;87541;-48
2021/01/15 11:10:42;;;;;;;;;;;9.00;66.60;;;;;;4959507;28;88372;-51
2021/01/15 11:13:08;;;;;;;;;;;8.60;67.90;;;;;;4959231;28;87168;-52
2021/01/15 11:15:33;;;;;;;;;;;8.40;68.60;;;;;;4944163;28;87933;-50
2021/01/15 11:17:59;;;;;;;;;;;8.40;68.90;;;;;;4939486;28;88507;-59
2021/01/15 11:20:24;;;;;;;;;;;8.30;69.10;;;;;;4943003;28;87418;-55
2021/01/15 11:22:50;;;;;;;;;;;7.60;71.40;;;;;;4941883;28;88004;-53
2021/01/15 11:25:16;;;;;;;;;;;6.70;75.80;;;;;;4938863;28;87218;-48
2021/01/15 11:27:42;;;;;;;;;;;6.90;74.80;;;;;;4951810;28;88136;-60
2021/01/15 11:30:07;;;;;;;;;;;7.30;73.30;;;;;;4958218;28;88336;-52
2021/01/15 11:32:33;;;;;;;;;;;7.60;72.80;;;;;;4958675;28;88124;-54
2021/01/15 11:34:58;;;;;;;;;;;6.80;75.50;;;;;;4958069;28;87724;-46
2021/01/15 11:37:24;;;;;;;;;;;6.20;79.00;;;;;;4958546;28;88290;-50
2021/01/15 11:39:50;;;;;;;;;;;;;;;;;;4958371;28;87193;-51
2021/01/15 11:42:16;;;;;;;;;;;;;;;;;;4959166;28;87617;-51
2021/01/15 11:44:42;;;;;;;;;;;;;;;;;;4961089;28;87579;-54
2021/01/15 11:47:08;;;;;;;;;;;;;;;;;;4959416;28;87142;-52
2021/01/15 11:49:34;;;;;;;;;;;;;;;;;;4957971;28;87776;-60
2021/01/15 11:52:00;;;;;;;;;;;;;;;;;;4959301;28;88208;-47
2021/01/15 11:54:25;;;;;;;;;;;;;;;;;;4958469;28;87799;-58
2021/01/15 11:56:52;;;;;;;;;;;;;;;;;;4941480;28;88477;-58
2021/01/15 11:59:17;;;;;;;;;;;;;;;;;;4941512;28;87176;-59
2021/01/15 12:01:43;;;;;;;;;;;;;;;;;;4940495;28;87233;-56
2021/01/15 12:04:09;;;;;;;;;;;;;;;;;;4938643;28;88282;-49
2021/01/15 12:06:35;;;;;;;;;;;;;;;;;;4941223;28;88810;-61
2021/01/15 12:09:01;;;;;;;;;;;;;;;;;;4943448;28;87841;-52
2021/01/15 12:11:30;;;;;;;;;;;;;;;;;;4941842;28;87101;-49
2021/01/15 12:13:56;;;;;;;;;;;;;;;;;;4938429;28;87292;-48
2021/01/15 12:16:21;;;;;;;;;;;;;;;;;;4956716;28;89219;-46
2021/01/15 12:18:47;;;;;;;;;;;;;;;;;;4958675;28;87226;-65
2021/01/15 12:21:13;;;;;;;;;;;;;;;;;;4957700;28;88813;-62
2021/01/15 12:23:39;;;;;;;;;;;;;;;;;;4957788;28;88396;-66
2021/01/15 12:26:05;;;;;;;;;;;;;;;;;;4955689;28;87192;-64
2021/01/15 12:28:31;;;;;;;;;;;;;;;;;;4962213;28;88792;-63
2021/01/15 12:30:57;;;;;;;;;;;;;;;;;;4961652;28;87122;-49
2021/01/15 12:33:23;;;;;;;;;;;;;;;;;;4961704;28;86864;-48
2021/01/15 12:35:49;;;;;;;;;;;;;;;;;;4960127;28;89727;-58
2021/01/15 12:38:14;;;;;;;;;;;;;;;;;;4997216;22;87405;-53
2021/01/15 12:40:40;;;;;;;;;;;;;;;;;;4958283;28;88554;-59
2021/01/15 12:43:06;;;;;;;;;;;;;;;;;;4958333;28;88101;-62
2021/01/15 12:45:32;;;;;;;;;;;;;;;;;;4957404;28;87151;-60
2021/01/15 12:47:58;;;;;;;;;;;;;;;;;;4956494;28;87207;-61
2021/01/15 12:50:25;;;;;;;;;;;;;;;;;;4953630;28;89168;-62
2021/01/15 12:52:51;;;;;;;;;;;;;;;;;;4939351;28;88266;-62
2021/01/15 12:55:17;;;;;;;;;;;;;;;;;;4937940;28;88346;-64
2021/01/15 12:57:43;;;;;;;;;;;;;;;;;;4937822;28;86406;-48
2021/01/15 13:00:08;;;;;;;;;;;;;;;;;;4944603;28;88560;-51
2021/01/15 13:02:34;;;;;;;;;;;;;;;;;;4960581;28;88171;-63
2021/01/15 13:05:00;;;;;;;;;;;;;;;;;;4959405;28;88119;-49
2021/01/15 13:07:26;;;;;;;;;;;;;;;;;;4959254;28;89194;-48
2021/01/15 13:09:52;;;;;;;;;;;;;;;;;;4953818;28;89050;-48
2021/01/15 13:12:18;;;;;;;;;;;;;;;;;;4940241;28;87164;-50
2021/01/15 13:14:44;;;;;;;;;;;;;;;;;;4936826;28;87718;-53
2021/01/15 13:17:10;;;;;;;;;;;;;;;;;;4936013;28;87417;-56
2021/01/15 13:19:36;;;;;;;;;;;;;;;;;;4935307;28;88362;-53
2021/01/15 13:22:02;;;;;;;;;;;;;;;;;;4955208;28;87325;-47
2021/01/15 13:24:28;;;;;;;;;;;;;;;;;;4954965;28;87606;-55
2021/01/15 13:26:53;;;;;;;;;;;;;;;;;;4939725;28;88105;-46
2021/01/15 13:29:19;;;;;;;;;;;;;;;;;;4959605;28;88970;-55
2021/01/15 13:31:45;;;;;;;;;;;;;;;;;;4943911;28;87214;-50
2021/01/15 13:34:11;;;;;;;;;;;;;;;;;;4938511;28;88139;-55
2021/01/15 13:36:38;;;;;;;;;;;;;;;;;;4938181;28;87562;-62
2021/01/15 13:39:04;;;;;;;;;;;;;;;;;;4936710;28;88481;-61
2021/01/15 13:43:58;;;;;;;;;;;;;;;;;;4439369;28;99361;-49
2021/01/15 13:46:24;;;;;;;;;;;;;;;;;;4952726;28;87713;-53
2021/01/15 13:48:52;;;;;;;;;;;;;;;;;;4958581;28;89710;-52
2021/01/15 13:51:18;;;;;;;;;;;;;;;;;;4955286;28;87158;-52
2021/01/15 13:53:43;;;;;;;;;;;;;;;;;;4958847;28;88129;-57
2021/01/15 13:58:45;;;;;;;;;;;;;;;;;;4523321;22;99350;-56
2021/01/15 14:01:11;;;;;;;;;;;;;;;;;;4941118;28;88233;-50
2021/01/15 14:03:37;;;;;;;;;;;;;;;;;;4937575;28;87192;-53
2021/01/15 14:07:53;;;;;;;;;;;;;;;;;;4975372;28;80327;-55
2021/01/15 14:12:04;;;;;;;;;;;13.20;61.30;;;;;;5061429;27;80294;-53
2021/01/15 14:14:33;;;;;;;;;;;12.90;62.70;;;;;;5031347;27;81093;-63
2021/01/15 14:17:00;;;;;;;;;;;12.90;62.40;;;;;;5024371;28;80414;-51
2021/01/15 14:19:26;;;;;;;;;;;12.90;63.10;;;;;;4987766;28;80336;-53
2021/01/15 14:21:51;;;;;;;;;;;13.00;63.20;;;;;;4978717;28;80349;-54
2021/01/15 14:24:17;;;;;;;;;;;13.00;63.10;;;;;;4978787;28;80876;-52
2021/01/15 14:26:42;;;;;;;;;;;13.60;62.10;;;;;;4979746;28;80927;-58
2021/01/15 14:29:08;;;;;;;;;;;15.50;57.30;;;;;;4980716;28;80387;-60
2021/01/15 14:31:35;;;;;;;;;;;16.60;54.00;;;;;;4982843;28;81207;-59
2021/01/15 14:34:00;;;;;;;;;;;17.30;52.30;;;;;;4977410;28;80344;-57
2021/01/15 14:36:26;;;;;;;;;;;16.30;54.70;;;;;;4977637;28;81437;-57
2021/01/15 14:38:51;;;;;;;;;;;15.50;57.10;;;;;;4977122;28;82211;-65
2021/01/15 14:41:17;;;;;;;;;;;15.00;58.70;;;;;;4978356;28;80391;-50
2021/01/15 14:43:42;;;;;;;;;;;14.60;59.50;;;;;;4979522;28;80453;-54
2021/01/15 14:46:08;;;;;;;;;;;14.60;60.00;;;;;;4980535;28;80401;-62
2021/01/15 14:48:33;;;;;;;;;;;14.50;60.40;;;;;;4979816;28;80488;-54
2021/01/15 14:50:59;;;;;;;;;;;14.40;60.80;;;;;;4979354;28;80980;-53
2021/01/15 14:53:24;;;;;;;;;;;14.30;61.20;;;;;;4981183;28;80870;-49
2021/01/15 14:55:50;;;;;;;;;;;14.30;61.60;;;;;;4978077;28;80520;-51